createdAt,value
2022-09-12T00:01:10.416Z,74.30
2022-09-12T00:03:38.776Z,75.42
2022-09-12T00:06:11.741Z,76.68
2022-09-12T00:08:39.103Z,76.03
2022-09-12T00:11:09.231Z,75.27
2022-09-12T00:13:41.453Z,75.38
2022-09-12T00:16:15.811Z,75.91
2022-09-12T00:18:44.267Z,75.37
2022-09-12T00:21:11.535Z,75.54
2022-09-12T00:23:38.851Z,75.67
2022-09-12T00:26:07.236Z,76.18
2022-09-12T00:28:36.153Z,76.13
2022-09-12T00:31:12.463Z,75.90
2022-09-12T00:33:40.157Z,75.66
2022-09-12T00:36:10.398Z,75.61
2022-09-12T00:38:38.835Z,75.46
2022-09-12T00:41:06.317Z,74.75
2022-09-12T00:43:35.860Z,76.05
2022-09-12T00:46:11.564Z,75.61
2022-09-12T00:48:44.474Z,74.97
2022-09-12T00:51:12.197Z,74.85
2022-09-12T00:53:41.718Z,75.72
2022-09-12T00:56:10.359Z,75.29
2022-09-12T00:58:41.694Z,76.03
2022-09-12T01:01:09.062Z,76.07
2022-09-12T01:03:36.466Z,76.85
2022-09-12T01:06:26.427Z,76.73
2022-09-12T01:08:54.956Z,76.76
2022-09-12T01:11:22.770Z,77.10
2022-09-12T01:13:51.040Z,76.87
2022-09-12T01:16:18.436Z,76.84
2022-09-12T01:18:48.599Z,77.21
2022-09-12T01:21:34.805Z,77.78
2022-09-12T01:24:07.981Z,77.47
2022-09-12T01:26:37.944Z,76.97
2022-09-12T01:29:27.648Z,77.80
2022-09-12T01:32:03.941Z,77.88
2022-09-12T01:34:45.785Z,78.02
2022-09-12T01:37:17.996Z,78.29
2022-09-12T01:39:51.537Z,77.50
2022-09-12T01:42:33.899Z,77.30
2022-09-12T01:45:16.751Z,77.37
2022-09-12T01:47:48.091Z,76.79
2022-09-12T01:50:21.729Z,77.10
2022-09-12T01:52:53.774Z,77.23
2022-09-12T01:55:26.089Z,77.49
2022-09-12T01:58:27.295Z,78.11
2022-09-12T02:01:03.490Z,77.68
2022-09-12T02:03:52.564Z,77.75
2022-09-12T02:06:24.120Z,77.09
2022-09-12T02:08:54.206Z,77.85
2022-09-12T02:11:21.936Z,77.28
2022-09-12T02:14:02.894Z,77.96
2022-09-12T02:16:46.418Z,77.83
2022-09-12T02:19:20.549Z,77.56
2022-09-12T02:21:52.795Z,78.57
2022-09-12T02:24:21.301Z,77.66
2022-09-12T02:26:52.690Z,78.66
2022-09-12T02:29:19.937Z,78.96
2022-09-12T02:31:48.958Z,78.32
2022-09-12T02:34:31.047Z,78.52
2022-09-12T02:37:10.320Z,77.91
2022-09-12T02:39:38.841Z,78.97
2022-09-12T02:42:07.790Z,78.94
2022-09-12T02:44:35.278Z,78.88
2022-09-12T02:47:15.509Z,79.20
2022-09-12T02:49:42.710Z,79.63
2022-09-12T02:52:10.109Z,78.69
2022-09-12T02:54:38.174Z,79.20
2022-09-12T02:57:19.524Z,79.01
2022-09-12T02:59:50.987Z,79.15
2022-09-12T03:02:28.527Z,79.94
2022-09-12T03:05:01.772Z,80.04
2022-09-12T03:08:15.820Z,78.58
2022-09-12T03:10:48.803Z,79.68
2022-09-12T03:13:15.927Z,79.69
2022-09-12T03:15:56.929Z,80.70
2022-09-12T03:18:59.676Z,80.00
2022-09-12T03:21:50.337Z,80.29
2022-09-12T03:24:38.120Z,79.84
2022-09-12T03:27:33.421Z,80.76
2022-09-12T03:30:01.198Z,80.24
2022-09-12T03:32:41.629Z,79.85
2022-09-12T03:35:10.022Z,80.17
2022-09-12T03:37:37.162Z,80.78
2022-09-12T03:40:06.226Z,80.51
2022-09-12T03:42:33.720Z,80.82
2022-09-12T03:45:00.989Z,80.83
2022-09-12T03:47:28.307Z,80.27
2022-09-12T03:49:55.627Z,80.01
2022-09-12T03:52:22.977Z,80.02
2022-09-12T03:54:50.200Z,79.64
2022-09-12T03:57:17.579Z,81.14
2022-09-12T03:59:44.932Z,80.57
2022-09-12T04:02:13.566Z,80.20
2022-09-12T04:04:42.649Z,79.60
2022-09-12T04:07:11.074Z,80.35
2022-09-12T04:09:38.670Z,79.88
2022-09-12T04:12:06.384Z,79.89
2022-09-12T04:14:33.817Z,80.17
2022-09-12T04:17:01.550Z,79.71
2022-09-12T04:19:28.914Z,80.88
2022-09-12T04:21:56.172Z,81.64
2022-09-12T04:24:23.440Z,81.42
2022-09-12T04:26:50.760Z,80.43
2022-09-12T04:29:17.956Z,80.41
2022-09-12T04:31:45.279Z,81.47
2022-09-12T04:34:12.608Z,81.48
2022-09-12T04:36:39.889Z,81.30
2022-09-12T04:39:07.764Z,82.25
2022-09-12T04:41:37.467Z,81.19
2022-09-12T04:44:13.186Z,79.17
2022-09-12T04:46:42.843Z,81.39
2022-09-12T04:49:10.791Z,81.12
2022-09-12T04:51:40.208Z,81.12
2022-09-12T04:54:11.202Z,80.79
2022-09-12T04:56:40.459Z,80.64
2022-09-12T04:59:08.683Z,80.75
2022-09-12T05:01:37.313Z,80.88
2022-09-12T05:04:04.921Z,80.82
2022-09-12T05:06:37.042Z,80.21
2022-09-12T05:09:07.274Z,80.71
2022-09-12T05:12:02.632Z,80.35
2022-09-12T05:14:23.506Z,79.76
2022-09-12T05:16:50.801Z,79.30
2022-09-12T05:19:18.053Z,80.44
2022-09-12T05:21:45.518Z,79.68
2022-09-12T05:24:12.821Z,79.89
2022-09-12T05:26:40.035Z,80.08
2022-09-12T05:29:07.414Z,80.48
2022-09-12T05:31:35.106Z,81.19
2022-09-12T05:34:05.148Z,80.86
2022-09-12T05:36:33.142Z,80.73
2022-09-12T05:39:00.455Z,82.38
2022-09-12T05:41:32.901Z,80.64
2022-09-12T05:44:05.578Z,80.74
2022-09-12T05:46:37.451Z,80.45
2022-09-12T05:49:10.249Z,80.58
2022-09-12T05:51:39.755Z,80.60
2022-09-12T05:54:08.852Z,80.24
2022-09-12T05:56:40.882Z,79.58
2022-09-12T05:59:13.087Z,79.39
2022-09-12T06:01:40.370Z,79.93
2022-09-12T06:04:08.247Z,78.91
2022-09-12T06:06:38.617Z,79.68
2022-09-12T06:09:06.385Z,78.91
2022-09-12T06:11:37.203Z,79.82
2022-09-12T06:14:05.083Z,79.34
2022-09-12T06:16:34.374Z,78.73
2022-09-12T06:19:07.261Z,79.38
2022-09-12T06:21:38.809Z,78.76
2022-09-12T06:24:09.040Z,78.75
2022-09-12T06:26:36.422Z,78.05
2022-09-12T06:29:04.242Z,76.91
2022-09-12T06:31:36.383Z,78.91
2022-09-12T06:34:06.144Z,77.12
2022-09-12T06:36:37.682Z,79.02
2022-09-12T06:39:08.117Z,78.95
2022-09-12T06:41:35.355Z,77.95
2022-09-12T06:44:03.348Z,77.26
2022-09-12T06:46:33.909Z,79.83
2022-09-12T06:49:01.312Z,78.64
2022-09-12T06:51:28.956Z,77.86
2022-09-12T06:53:57.094Z,78.83
2022-09-12T06:56:26.662Z,77.75
2022-09-12T06:58:56.437Z,77.94
2022-09-12T07:01:28.579Z,78.38
2022-09-12T07:03:59.217Z,77.24
2022-09-12T07:06:31.786Z,77.00
2022-09-12T07:08:59.887Z,76.20
2022-09-12T07:11:31.830Z,76.42
2022-09-12T07:14:02.071Z,74.98
2022-09-12T07:16:30.366Z,75.30
2022-09-12T07:19:02.816Z,75.96
2022-09-12T07:21:30.719Z,75.55
2022-09-12T07:23:58.427Z,74.54
2022-09-12T07:26:27.605Z,74.37
2022-09-12T07:29:07.922Z,73.56
2022-09-12T07:31:35.360Z,73.18
2022-09-12T07:34:06.219Z,72.71
2022-09-12T07:36:34.279Z,71.87
2022-09-12T07:39:01.582Z,72.45
2022-09-12T07:41:31.208Z,72.06
2022-09-12T07:44:00.359Z,71.61
2022-09-12T07:46:29.576Z,70.90
2022-09-12T07:48:58.151Z,71.80
2022-09-12T07:51:26.924Z,71.71
2022-09-12T07:53:54.891Z,71.44
2022-09-12T07:56:27.355Z,70.67
2022-09-12T07:58:56.955Z,70.16
2022-09-12T08:01:24.687Z,69.28
2022-09-12T08:04:01.597Z,68.67
2022-09-12T08:06:31.210Z,68.63
2022-09-12T08:08:59.597Z,68.63
2022-09-12T08:11:28.701Z,67.91
2022-09-12T08:13:57.558Z,68.79
2022-09-12T08:16:31.035Z,68.06
2022-09-12T08:19:00.641Z,68.11
2022-09-12T08:21:30.068Z,67.49
2022-09-12T08:24:03.804Z,67.66
2022-09-12T08:26:32.713Z,67.57
2022-09-12T08:29:00.537Z,66.83
2022-09-12T08:31:28.329Z,66.25
2022-09-12T08:33:56.912Z,66.88
2022-09-12T08:36:26.668Z,67.05
2022-09-12T08:39:02.322Z,67.21
2022-09-12T08:41:44.748Z,67.02
2022-09-12T08:44:13.085Z,66.43
2022-09-12T08:47:13.985Z,66.01
2022-09-12T08:49:58.737Z,65.48
2022-09-12T08:52:48.035Z,65.49
2022-09-12T08:55:31.245Z,65.31
2022-09-12T08:58:00.704Z,64.98
2022-09-12T09:00:37.895Z,64.28
2022-09-12T09:03:10.181Z,63.34
2022-09-12T09:06:02.161Z,64.13
2022-09-12T09:08:46.650Z,64.49
2022-09-12T09:11:29.497Z,63.32
2022-09-12T09:14:23.973Z,62.87
2022-09-12T09:16:52.858Z,62.49
2022-09-12T09:19:28.756Z,61.80
2022-09-12T09:22:02.214Z,61.12
2022-09-12T09:24:42.977Z,60.99
2022-09-12T09:27:40.436Z,60.44
2022-09-12T09:30:19.540Z,60.73
2022-09-12T09:32:50.986Z,60.49
2022-09-12T09:35:41.330Z,60.67
2022-09-12T09:38:15.344Z,60.40
2022-09-12T09:40:42.429Z,59.86
2022-09-12T09:43:20.619Z,58.84
2022-09-12T09:45:48.146Z,58.39
2022-09-12T09:48:38.029Z,58.55
2022-09-12T09:51:07.522Z,57.86
2022-09-12T09:53:37.472Z,57.64
2022-09-12T09:56:15.666Z,58.24
2022-09-12T09:58:43.802Z,58.06
2022-09-12T10:01:17.951Z,57.34
2022-09-12T10:03:50.638Z,56.90
2022-09-12T10:06:23.464Z,56.16
2022-09-12T10:08:50.923Z,56.59
2022-09-12T10:11:22.906Z,56.42
2022-09-12T10:13:58.329Z,56.09
2022-09-12T10:16:29.932Z,55.99
2022-09-12T10:19:01.804Z,56.35
2022-09-12T10:21:45.932Z,54.61
2022-09-12T10:24:28.678Z,54.63
2022-09-12T10:27:13.905Z,53.92
2022-09-12T10:29:48.673Z,54.19
2022-09-12T10:32:42.993Z,54.41
2022-09-12T10:35:19.468Z,53.79
2022-09-12T10:37:55.673Z,53.65
2022-09-12T10:40:24.871Z,53.29
2022-09-12T10:42:56.239Z,53.21
2022-09-12T10:45:37.978Z,53.33
2022-09-12T10:48:31.673Z,52.24
2022-09-12T10:50:59.906Z,51.90
2022-09-12T10:53:40.873Z,50.86
2022-09-12T10:56:14.142Z,51.08
2022-09-12T10:59:20.288Z,50.83
2022-09-12T11:01:57.892Z,50.37
2022-09-12T11:04:53.214Z,50.58
2022-09-12T11:07:38.049Z,51.36
2022-09-12T11:10:11.919Z,50.51
2022-09-12T11:13:06.414Z,49.57
2022-09-12T11:16:14.374Z,49.69
2022-09-12T11:19:12.974Z,49.73
2022-09-12T11:22:12.487Z,48.64
2022-09-12T11:25:10.487Z,48.48
2022-09-12T11:28:20.059Z,47.96
2022-09-12T11:31:25.279Z,47.81
2022-09-12T11:33:56.519Z,47.48
2022-09-12T11:36:57.081Z,46.61
2022-09-12T11:39:28.802Z,47.01
2022-09-12T11:41:59.257Z,47.03
2022-09-12T11:44:40.334Z,46.40
2022-09-12T11:47:11.897Z,47.37
2022-09-12T11:49:59.161Z,46.04
2022-09-12T11:52:30.541Z,46.42
2022-09-12T11:55:22.221Z,45.13
2022-09-12T11:57:53.821Z,45.75
2022-09-12T12:00:22.867Z,45.40
2022-09-12T12:03:18.043Z,46.03
2022-09-12T12:06:07.669Z,45.09
2022-09-12T12:08:40.684Z,45.37
2022-09-12T12:11:09.286Z,45.88
2022-09-12T12:13:57.783Z,45.27
2022-09-12T12:16:30.016Z,45.21
2022-09-12T12:18:59.528Z,44.90
2022-09-12T12:21:29.578Z,44.85
2022-09-12T12:24:08.619Z,44.47
2022-09-12T12:26:58.530Z,44.51
2022-09-12T12:29:32.819Z,44.88
2022-09-12T12:32:00.575Z,44.60
2022-09-12T12:34:40.760Z,44.80
2022-09-12T12:37:22.648Z,44.37
2022-09-12T12:39:51.089Z,44.91
2022-09-12T12:42:36.463Z,44.10
2022-09-12T12:45:06.689Z,44.11
2022-09-12T12:47:46.323Z,43.60
2022-09-12T12:50:16.578Z,44.05
2022-09-12T12:53:03.093Z,43.63
2022-09-12T12:55:46.304Z,42.54
2022-09-12T12:58:40.640Z,42.41
2022-09-12T13:01:13.977Z,42.81
2022-09-12T13:03:45.040Z,42.52
2022-09-12T13:06:34.901Z,43.37
2022-09-12T13:09:22.425Z,43.60
2022-09-12T13:12:01.227Z,42.99
2022-09-12T13:14:36.238Z,42.96
2022-09-12T13:17:07.727Z,43.06
2022-09-12T13:19:37.105Z,42.21
2022-09-12T13:22:09.311Z,42.06
2022-09-12T13:24:48.861Z,41.50
2022-09-12T13:27:20.040Z,41.18
2022-09-12T13:29:47.735Z,40.50
2022-09-12T13:32:16.746Z,40.43
2022-09-12T13:35:16.561Z,39.93
2022-09-12T13:38:15.337Z,40.94
2022-09-12T13:41:01.372Z,40.75
2022-09-12T13:43:37.594Z,41.04
2022-09-12T13:46:06.437Z,41.64
2022-09-12T13:48:33.831Z,42.66
2022-09-12T13:51:02.422Z,42.57
2022-09-12T13:53:45.080Z,42.58
2022-09-12T13:56:19.457Z,42.64
2022-09-12T13:58:54.082Z,41.94
2022-09-12T14:01:22.520Z,41.61
2022-09-12T14:04:14.120Z,41.15
2022-09-12T14:06:48.188Z,41.01
2022-09-12T14:09:38.576Z,40.93
2022-09-12T14:12:18.217Z,40.09
2022-09-12T14:14:49.988Z,40.26
2022-09-12T14:17:34.680Z,40.11
2022-09-12T14:20:06.954Z,40.16
2022-09-12T14:22:35.728Z,39.96
2022-09-12T14:25:03.406Z,39.78
2022-09-12T14:27:42.437Z,39.42
2022-09-12T14:30:33.441Z,39.92
2022-09-12T14:33:03.652Z,39.62
2022-09-12T14:35:32.482Z,39.92
2022-09-12T14:38:13.936Z,40.26
2022-09-12T14:41:14.029Z,39.50
2022-09-12T14:43:53.507Z,38.87
2022-09-12T14:46:41.316Z,39.06
2022-09-12T14:49:36.665Z,38.22
2022-09-12T14:52:21.551Z,37.79
2022-09-12T14:55:16.329Z,37.35
2022-09-12T14:57:44.557Z,37.80
2022-09-12T15:00:11.994Z,37.89
2022-09-12T15:02:45.998Z,38.04
2022-09-12T15:05:13.289Z,37.52
2022-09-12T15:07:54.170Z,37.17
2022-09-12T15:10:34.403Z,37.26
2022-09-12T15:13:16.607Z,37.02
2022-09-12T15:15:46.600Z,37.97
2022-09-12T15:18:14.862Z,37.25
2022-09-12T15:20:45.596Z,38.00
2022-09-12T15:23:18.049Z,38.73
2022-09-12T15:25:45.685Z,39.12
2022-09-12T15:28:17.838Z,38.73
2022-09-12T15:30:46.207Z,39.39
2022-09-12T15:33:14.156Z,39.02
2022-09-12T15:35:41.445Z,38.94
2022-09-12T15:38:08.665Z,39.45
2022-09-12T15:40:35.919Z,38.59
2022-09-12T15:43:03.287Z,38.65
2022-09-12T15:45:32.758Z,39.43
2022-09-12T15:48:00.564Z,38.60
2022-09-12T15:50:28.202Z,38.04
2022-09-12T15:52:55.995Z,37.65
2022-09-12T15:55:30.354Z,38.10
2022-09-12T15:57:58.528Z,37.62
2022-09-12T16:00:25.977Z,37.44
2022-09-12T16:02:53.965Z,37.31
2022-09-12T16:05:24.073Z,37.35
2022-09-12T16:07:55.987Z,37.61
2022-09-12T16:10:26.393Z,37.86
2022-09-12T16:12:53.744Z,38.19
2022-09-12T16:15:23.508Z,38.61
2022-09-12T16:17:51.390Z,38.48
2022-09-12T16:20:19.542Z,38.55
2022-09-12T16:22:47.026Z,38.26
2022-09-12T16:25:14.297Z,37.99
2022-09-12T16:27:41.804Z,38.63
2022-09-12T16:30:10.074Z,38.59
2022-09-12T16:32:37.517Z,38.60
2022-09-12T16:35:05.701Z,38.89
2022-09-12T16:37:34.592Z,38.87
2022-09-12T16:40:03.082Z,38.94
2022-09-12T16:42:30.406Z,38.72
2022-09-12T16:44:57.756Z,39.61
2022-09-12T16:47:24.954Z,38.18
2022-09-12T16:49:52.295Z,37.81
2022-09-12T16:52:19.508Z,38.20
2022-09-12T16:54:47.574Z,38.00
2022-09-12T16:57:22.415Z,38.49
2022-09-12T16:59:49.645Z,38.33
2022-09-12T17:02:16.846Z,37.97
2022-09-12T17:04:44.226Z,37.63
2022-09-12T17:07:11.487Z,38.43
2022-09-12T17:09:38.681Z,37.90
2022-09-12T17:12:06.048Z,38.91
2022-09-12T17:14:33.308Z,39.95
2022-09-12T17:17:00.538Z,38.63
2022-09-12T17:19:29.656Z,39.18
2022-09-12T17:21:57.612Z,39.38
2022-09-12T17:24:25.610Z,39.66
2022-09-12T17:26:53.711Z,39.70
2022-09-12T17:29:21.072Z,40.88
2022-09-12T17:31:48.921Z,40.19
2022-09-12T17:34:17.589Z,40.36
2022-09-12T17:36:45.666Z,40.40
2022-09-12T17:39:13.881Z,40.37
2022-09-12T17:41:45.725Z,40.10
2022-09-12T17:44:15.003Z,40.75
2022-09-12T17:46:42.655Z,40.59
2022-09-12T17:49:15.375Z,41.22
2022-09-12T17:51:43.906Z,41.07
2022-09-12T17:54:16.041Z,41.64
2022-09-12T17:56:45.483Z,41.70
2022-09-12T17:59:18.821Z,42.16
2022-09-12T18:02:05.214Z,41.56
2022-09-12T18:04:32.785Z,41.74
2022-09-12T18:07:00.443Z,40.87
2022-09-12T18:09:28.366Z,42.04
2022-09-12T18:11:55.873Z,42.83
2022-09-12T18:14:23.218Z,43.70
2022-09-12T18:16:50.605Z,43.45
2022-09-12T18:19:18.296Z,43.77
2022-09-12T18:21:45.912Z,43.58
2022-09-12T18:24:13.460Z,43.99
2022-09-12T18:26:40.908Z,44.76
2022-09-12T18:29:08.179Z,44.84
2022-09-12T18:31:35.919Z,44.30
2022-09-12T18:34:03.236Z,44.63
2022-09-12T18:36:30.941Z,44.96
2022-09-12T18:38:59.074Z,46.55
2022-09-12T18:41:28.795Z,46.59
2022-09-12T18:43:57.328Z,47.12
2022-09-12T18:46:25.405Z,46.25
2022-09-12T18:48:55.410Z,47.11
2022-09-12T18:51:23.144Z,47.83
2022-09-12T18:53:52.952Z,47.39
2022-09-12T18:56:21.735Z,48.12
2022-09-12T18:58:56.405Z,47.80
2022-09-12T19:01:29.066Z,47.35
2022-09-12T19:03:57.003Z,47.41
2022-09-12T19:06:26.938Z,48.50
2022-09-12T19:08:55.520Z,47.62
2022-09-12T19:11:23.666Z,47.99
2022-09-12T19:13:52.285Z,48.90
2022-09-12T19:16:22.640Z,49.12
2022-09-12T19:18:52.262Z,48.99
2022-09-12T19:21:24.936Z,48.59
2022-09-12T19:23:53.331Z,49.27
2022-09-12T19:26:21.014Z,50.18
2022-09-12T19:28:48.604Z,50.24
2022-09-12T19:31:19.057Z,49.82
2022-09-12T19:33:47.013Z,50.77
2022-09-12T19:36:43.326Z,49.82
2022-09-12T19:39:04.838Z,50.06
2022-09-12T19:41:32.771Z,49.74
2022-09-12T19:44:00.368Z,50.24
2022-09-12T19:46:27.896Z,50.11
2022-09-12T19:48:55.591Z,50.12
2022-09-12T19:51:24.050Z,50.08
2022-09-12T19:53:51.775Z,49.83
2022-09-12T19:56:19.168Z,50.41
2022-09-12T19:58:50.906Z,49.73
2022-09-12T20:01:27.728Z,50.65
2022-09-12T20:03:55.188Z,50.80
2022-09-12T20:06:22.636Z,50.04
2022-09-12T20:08:49.959Z,50.77
2022-09-12T20:11:19.202Z,51.32
2022-09-12T20:13:46.873Z,51.40
2022-09-12T20:16:23.264Z,50.88
2022-09-12T20:18:58.741Z,50.99
2022-09-12T20:21:31.251Z,50.79
2022-09-12T20:24:05.907Z,50.89
2022-09-12T20:26:33.414Z,51.01
2022-09-12T20:29:00.582Z,51.29
2022-09-12T20:31:27.943Z,51.07
2022-09-12T20:33:55.276Z,51.64
2022-09-12T20:36:22.869Z,51.77
2022-09-12T20:38:56.888Z,51.91
2022-09-12T20:41:25.431Z,51.34
2022-09-12T20:43:54.098Z,51.12
2022-09-12T20:46:22.718Z,51.50
2022-09-12T20:48:51.447Z,51.48
2022-09-12T20:51:22.247Z,51.72
2022-09-12T20:53:54.442Z,51.36
2022-09-12T20:56:22.907Z,51.01
2022-09-12T20:58:50.339Z,51.59
2022-09-12T21:01:17.701Z,51.48
2022-09-12T21:03:45.368Z,52.16
2022-09-12T21:06:14.295Z,51.86
2022-09-12T21:08:41.606Z,51.32
2022-09-12T21:11:09.279Z,51.38
2022-09-12T21:13:37.035Z,51.86
2022-09-12T21:16:06.995Z,51.51
2022-09-12T21:18:35.153Z,51.24
2022-09-12T21:21:05.121Z,51.29
2022-09-12T21:23:32.657Z,50.92
2022-09-12T21:26:00.459Z,51.14
2022-09-12T21:28:27.682Z,50.42
2022-09-12T21:30:54.996Z,50.50
2022-09-12T21:33:22.852Z,50.47
2022-09-12T21:35:50.329Z,50.25
2022-09-12T21:38:18.985Z,51.99
2022-09-12T21:40:47.047Z,51.81
2022-09-12T21:43:14.391Z,50.55
2022-09-12T21:45:41.814Z,51.96
2022-09-12T21:48:09.607Z,51.08
2022-09-12T21:50:36.859Z,50.33
2022-09-12T21:53:04.095Z,51.54
2022-09-12T21:55:31.399Z,51.85
2022-09-12T21:57:58.708Z,51.47
2022-09-12T22:00:26.096Z,52.24
2022-09-12T22:02:53.778Z,52.00
2022-09-12T22:05:24.692Z,51.96
2022-09-12T22:07:52.570Z,52.49
2022-09-12T22:10:19.802Z,53.62
2022-09-12T22:12:47.083Z,53.66
2022-09-12T22:18:02.231Z,53.37
2022-09-12T22:20:29.633Z,53.35
2022-09-12T22:23:15.103Z,54.21
2022-09-12T22:25:42.412Z,54.58
2022-09-12T22:28:09.986Z,54.88
2022-09-12T22:30:38.614Z,55.22
2022-09-12T22:33:05.826Z,55.55
2022-09-12T22:35:33.563Z,55.88
2022-09-12T22:38:00.803Z,55.66
2022-09-12T22:40:28.117Z,55.39
2022-09-12T22:42:55.322Z,55.82
2022-09-12T22:45:22.748Z,56.22
2022-09-12T22:47:49.940Z,56.64
2022-09-12T22:50:17.551Z,55.91
2022-09-12T22:52:44.941Z,55.90
2022-09-12T22:55:12.204Z,56.01
2022-09-12T22:57:39.947Z,56.08
2022-09-12T23:00:10.503Z,56.29
2022-09-12T23:02:38.209Z,56.37
2022-09-12T23:05:06.188Z,55.94
2022-09-12T23:07:33.764Z,55.49
2022-09-12T23:10:01.048Z,57.71
2022-09-12T23:12:28.367Z,58.02
2022-09-12T23:14:55.576Z,58.07
2022-09-12T23:17:23.022Z,58.10
2022-09-12T23:19:50.262Z,58.29
2022-09-12T23:22:17.504Z,57.83
2022-09-12T23:24:44.884Z,57.73
2022-09-12T23:27:12.075Z,58.46
2022-09-12T23:29:39.728Z,58.78
2022-09-12T23:32:07.020Z,58.98
2022-09-12T23:34:34.225Z,59.52
2022-09-12T23:37:01.512Z,59.33
2022-09-12T23:39:28.816Z,59.75
2022-09-12T23:41:56.065Z,59.67
2022-09-12T23:44:23.315Z,59.40
2022-09-12T23:46:50.604Z,59.31
2022-09-12T23:49:17.950Z,59.64
2022-09-12T23:51:45.167Z,60.16
2022-09-12T23:54:12.410Z,60.67
2022-09-12T23:56:39.679Z,60.70
2022-09-12T23:59:06.912Z,60.37
